Time;durP1;ratioP1;P1;durP2;ratioP2;P2;SDS_P1;SDS_P2;PMS_P1;PMS_P2;Temp;Humidity;BMP_temperature;BMP_pressure;BME280_temperature;BME280_humidity;BME280_pressure;Samples;Min_cycle;Max_cycle;Signal;HPM_P1;HPM_P2
2023/05/04 00:01:01;;;;;;;5.38;3.03;;;;;;;-148.88;87.08;77083.50;5034691;28;20053;-75
2023/05/04 00:03:26;;;;;;;8.25;3.25;;;;;;;-148.88;87.18;77093.66;5016673;28;20029;-76
2023/05/04 00:05:51;;;;;;;9.25;3.75;;;;;;;-148.88;86.77;77089.59;5033867;28;20022;-75
2023/05/04 00:08:17;;;;;;;6.93;3.50;;;;;;;-148.88;87.16;77085.53;5034543;28;20450;-75
2023/05/04 00:10:42;;;;;;;6.28;3.53;;;;;;;-148.88;86.69;77083.50;5016641;28;20021;-76
2023/05/04 00:13:07;;;;;;;7.43;3.72;;;;;;;-148.88;87.21;77085.53;5034407;28;20033;-75
2023/05/04 00:15:32;;;;;;;7.75;3.75;;;;;;;-148.88;87.43;77093.66;5016583;28;20025;-76
2023/05/04 00:17:58;;;;;;;6.28;3.08;;;;;;;-148.88;87.03;77083.50;5034357;28;20026;-75
2023/05/04 00:20:23;;;;;;;7.40;3.42;;;;;;;-148.88;87.43;77091.63;5016571;28;20478;-75
2023/05/04 00:22:48;;;;;;;7.25;3.45;;;;;;;-148.88;87.46;77093.66;5034266;28;20067;-75
2023/05/04 00:25:13;;;;;;;9.70;5.03;;;;;;;-148.88;87.31;77085.53;5034082;28;20104;-75
2023/05/04 00:27:39;;;;;;;9.25;3.50;;;;;;;-148.88;87.37;77083.50;5034385;28;20025;-76
2023/05/04 00:30:05;;;;;;;7.85;3.40;;;;;;;-148.88;87.60;77081.47;5035282;28;20025;-75
2023/05/04 00:32:31;;;;;;;8.25;3.55;;;;;;;-148.88;87.77;77089.59;5034063;28;20525;-75
2023/05/04 00:34:58;;;;;;;7.50;3.20;;;;;;;-148.88;88.34;77101.78;5034023;28;20025;-75
2023/05/04 00:37:23;;;;;;;8.85;3.35;;;;;;;-148.88;88.44;77097.72;5034035;28;20029;-75
2023/05/04 00:39:49;;;;;;;8.90;3.50;;;;;;;-148.88;89.08;77101.78;5033893;28;20112;-75
2023/05/04 00:42:14;;;;;;;8.70;3.75;;;;;;;-148.88;88.83;77099.75;5033823;28;20052;-76
2023/05/04 00:44:40;;;;;;;9.07;3.47;;;;;;;-148.88;89.29;77097.72;5033804;28;20030;-76
2023/05/04 00:47:07;;;;;;;7.13;3.78;;;;;;;-148.88;89.56;77095.69;5034054;28;20033;-76
2023/05/04 00:49:33;;;;;;;9.43;5.20;;;;;;;-148.88;89.31;77097.72;5033667;28;20036;-75
2023/05/04 00:52:00;;;;;;;9.70;3.80;;;;;;;-148.88;89.29;77097.72;5033692;28;20025;-75
2023/05/04 00:54:26;;;;;;;9.95;4.20;;;;;;;-148.88;90.00;77105.84;5033555;28;20022;-76
2023/05/04 00:56:52;;;;;;;9.10;3.33;;;;;;;-148.88;90.58;77118.06;5015958;28;20071;-76
2023/05/04 00:59:17;;;;;;;8.98;5.68;;;;;;;-148.88;91.63;77111.97;5033521;28;20025;-75
2023/05/04 01:01:42;;;;;;;5.38;3.53;;;;;;;-148.88;91.73;77118.06;5016060;28;20022;-76
2023/05/04 01:04:08;;;;;;;6.80;3.70;;;;;;;-148.88;91.45;77118.06;5033419;28;20041;-75
2023/05/04 01:07:00;;;;;;;8.60;3.38;;;;;;;-148.88;91.62;77124.16;5033921;28;20021;-75
2023/05/04 01:09:36;;;;;;;7.90;4.03;;;;;;;-148.88;92.02;77116.03;5033657;28;20025;-75
2023/05/04 01:12:17;;;;;;;9.90;3.83;;;;;;;-148.88;91.77;77120.09;5033615;28;20056;-75
2023/05/04 01:14:43;;;;;;;6.40;3.58;;;;;;;-148.88;92.70;77134.31;5033571;28;20184;-76
2023/05/04 01:17:09;;;;;;;8.15;3.88;;;;;;;-148.88;92.15;77130.25;5015113;28;20017;-76
2023/05/04 01:19:35;;;;;;;9.80;3.95;;;;;;;-148.88;92.46;77146.50;5033220;28;20056;-75
2023/05/04 01:22:00;;;;;;;5.47;3.58;;;;;;;-148.88;94.60;77156.66;5033266;28;20452;-76
2023/05/04 01:24:27;;;;;;;8.15;3.90;;;;;;;-148.88;94.58;77162.75;5032881;28;20132;-76
2023/05/04 01:27:02;;;;;;;6.45;4.00;;;;;;;-148.88;95.08;77158.69;5032963;28;20087;-76
2023/05/04 01:29:39;;;;;;;11.02;4.45;;;;;;;-148.88;96.50;77174.94;5033018;28;20025;-75
2023/05/04 01:32:05;;;;;;;7.57;4.38;;;;;;;-148.88;96.29;77181.03;5015184;28;20060;-76
2023/05/04 01:34:30;;;;;;;7.70;4.03;;;;;;;-148.88;96.95;77185.09;5014965;28;20049;-75
2023/05/04 01:36:56;;;;;;;7.57;3.72;;;;;;;-148.88;97.55;77195.25;5015347;28;20021;-75
2023/05/04 01:39:22;;;;;;;9.20;5.82;;;;;;;-148.88;98.52;77181.03;5032998;28;20029;-75
2023/05/04 01:41:47;;;;;;;6.18;3.70;;;;;;;-148.88;97.29;77183.06;5024619;28;20009;-76
2023/05/04 01:44:12;;;;;;;9.75;4.28;;;;;;;-148.88;98.00;77195.25;5019114;28;20025;-75
2023/05/04 01:46:37;;;;;;;12.88;4.47;;;;;;;-148.88;98.02;77205.44;5032709;28;20030;-75
2023/05/04 01:49:03;;;;;;;6.45;3.50;;;;;;;-148.88;99.30;77217.63;5032582;28;20026;-75
2023/05/04 01:51:28;;;;;;;11.15;6.97;;;;;;;-148.88;99.71;77223.72;5032641;28;20022;-75
2023/05/04 01:53:53;;;;;;;10.10;6.18;;;;;;;-148.88;100.00;77229.81;5032630;28;20041;-76
2023/05/04 01:56:19;;;;;;;6.90;3.65;;;;;;;-148.88;100.00;77219.66;5032491;28;20079;-76
2023/05/04 01:58:44;;;;;;;19.48;7.53;;;;;;;-148.88;100.00;77215.59;5014758;28;20029;-75
2023/05/04 02:01:09;;;;;;;9.65;4.35;;;;;;;-148.88;99.35;77209.50;5014836;28;20391;-76
2023/05/04 02:03:35;;;;;;;10.60;4.10;;;;;;;-148.88;98.75;77203.41;5032470;28;20052;-76
2023/05/04 02:06:00;;;;;;;10.10;4.10;;;;;;;-148.88;98.36;77209.50;5032482;28;20030;-76
2023/05/04 02:08:28;;;;;;;7.43;4.10;;;;;;;-148.88;98.69;77205.44;5032477;28;20090;-76
2023/05/04 02:10:53;;;;;;;8.85;6.53;;;;;;;-148.88;98.96;77207.47;5014778;28;20064;-76
2023/05/04 02:13:18;;;;;;;7.32;4.50;;;;;;;-148.88;99.43;77207.47;5032508;28;20056;-76
2023/05/04 02:15:43;;;;;;;10.52;4.55;;;;;;;-148.88;99.28;77207.47;5014743;28;20018;-76
2023/05/04 02:18:09;;;;;;;10.20;4.07;;;;;;;-148.88;99.33;77209.50;5032578;28;20171;-75
2023/05/04 02:20:34;;;;;;;6.53;3.72;;;;;;;-148.88;99.48;77205.44;5033448;28;20045;-75
2023/05/04 02:22:59;;;;;;;5.78;3.80;;;;;;;-148.88;100.00;77217.63;5032544;28;20029;-75
2023/05/04 02:25:24;;;;;;;9.90;4.43;;;;;;;-148.88;99.98;77219.66;5032312;28;20018;-75
2023/05/04 02:27:50;;;;;;;7.55;3.97;;;;;;;-148.88;99.79;77207.47;5032396;28;20025;-76
2023/05/04 02:30:15;;;;;;;7.32;3.75;;;;;;;-148.88;100.00;77211.53;5017884;28;20025;-75
2023/05/04 02:32:40;;;;;;;9.05;4.57;;;;;;;-148.88;100.00;77215.59;5036638;28;20543;-75
2023/05/04 02:35:06;;;;;;;7.50;4.15;;;;;;;-148.88;99.98;77201.34;5036561;28;20021;-75
2023/05/04 02:37:31;;;;;;;7.60;4.30;;;;;;;-148.88;99.52;77207.47;5036513;28;20108;-75
2023/05/04 02:39:57;;;;;;;9.15;4.45;;;;;;;-148.88;99.67;77193.22;5036548;28;20036;-76
2023/05/04 02:42:22;;;;;;;7.93;3.95;;;;;;;-148.88;99.05;77205.44;5036510;28;20017;-76
2023/05/04 02:44:47;;;;;;;7.15;4.07;;;;;;;-148.88;99.98;77205.44;5036345;28;20049;-76
2023/05/04 02:47:13;;;;;;;7.72;4.28;;;;;;;-148.88;99.55;77207.47;5078030;22;20054;-78
2023/05/04 02:49:39;;;;;;;9.35;4.75;;;;;;;-148.88;100.00;77207.47;5018213;28;20050;-78
2023/05/04 02:52:04;;;;;;;6.00;4.05;;;;;;;-148.88;100.00;77203.41;5018391;28;20117;-77
2023/05/04 02:54:30;;;;;;;9.13;4.30;;;;;;;-148.88;100.00;77207.47;5018263;28;20022;-78
2023/05/04 02:56:55;;;;;;;10.25;4.38;;;;;;;-148.88;99.85;77207.47;5000612;28;20560;-77
2023/05/04 02:59:20;;;;;;;7.90;4.18;;;;;;;-148.88;99.76;77191.19;5017867;28;20025;-77
2023/05/04 03:01:45;;;;;;;14.02;4.22;;;;;;;-148.88;100.00;77199.31;5017476;28;20044;-78
2023/05/04 03:04:11;;;;;;;7.28;4.18;;;;;;;-148.88;99.40;77199.31;5017473;28;20037;-78
2023/05/04 03:06:36;;;;;;;9.57;4.28;;;;;;;-148.88;99.40;77197.28;5017598;28;20029;-78
2023/05/04 03:09:01;;;;;;;13.43;3.90;;;;;;;-148.88;99.77;77195.25;5017566;28;20113;-78
2023/05/04 03:11:27;;;;;;;11.98;4.05;;;;;;;-148.88;99.86;77191.19;5000248;28;20489;-78
2023/05/04 03:13:52;;;;;;;7.47;4.55;;;;;;;-148.88;99.75;77193.22;5019097;28;20029;-78
2023/05/04 03:16:17;;;;;;;9.25;4.28;;;;;;;-148.88;99.86;77195.25;5001447;28;20374;-79
2023/05/04 03:18:43;;;;;;;12.52;4.82;;;;;;;-148.88;99.90;77195.25;5020174;28;20022;-79
2023/05/04 03:21:08;;;;;;;7.03;4.60;;;;;;;-148.88;100.00;77193.22;5019769;28;20495;-78
2023/05/04 03:23:33;;;;;;;11.10;4.57;;;;;;;-148.88;100.00;77191.19;5003669;28;20033;-78
2023/05/04 03:25:58;;;;;;;8.13;4.68;;;;;;;-148.88;100.00;77195.25;5020923;28;20109;-78
2023/05/04 03:28:24;;;;;;;9.45;4.65;;;;;;;-148.88;100.00;77191.19;5003209;28;20041;-79
2023/05/04 03:30:49;;;;;;;13.07;4.07;;;;;;;-148.88;100.00;77199.31;5019408;28;20030;-79
2023/05/04 03:33:14;;;;;;;10.38;4.85;;;;;;;-148.88;100.00;77191.19;5017479;28;20044;-78
2023/05/04 03:35:40;;;;;;;12.05;4.72;;;;;;;-148.88;100.00;77203.41;5019312;28;20061;-77
2023/05/04 03:38:06;;;;;;;9.55;4.43;;;;;;;-148.88;100.00;77199.31;5020487;28;20036;-79
2023/05/04 03:40:32;;;;;;;11.95;4.65;;;;;;;-148.88;100.00;77197.28;5016796;28;20508;-78
2023/05/04 03:42:57;;;;;;;11.63;5.35;;;;;;;-148.88;100.00;77205.44;5000577;28;20030;-78
2023/05/04 03:45:27;;;;;;;12.77;4.30;;;;;;;-148.88;100.00;77207.47;5018076;28;20030;-78
2023/05/04 03:47:52;;;;;;;7.78;4.07;;;;;;;-148.88;100.00;77199.31;5001285;28;20038;-79
2023/05/04 03:50:17;;;;;;;8.43;4.10;;;;;;;-148.88;100.00;77197.28;5019878;28;20034;-79
2023/05/04 03:52:43;;;;;;;8.65;4.18;;;;;;;-148.88;100.00;77189.16;5002398;28;20099;-79
2023/05/04 03:55:09;;;;;;;11.65;4.35;;;;;;;-148.88;100.00;77191.19;5016440;28;20541;-78
2023/05/04 03:57:34;;;;;;;12.85;4.65;;;;;;;-148.88;100.00;77191.19;5019020;28;20032;-79
2023/05/04 03:59:59;;;;;;;7.30;4.03;;;;;;;-148.88;100.00;77179.00;5001964;28;20029;-79
2023/05/04 04:02:25;;;;;;;7.28;4.10;;;;;;;-148.88;100.00;77185.09;5019185;28;20061;-79
2023/05/04 04:04:50;;;;;;;7.82;5.13;;;;;;;-148.88;100.00;77189.16;5002356;28;20489;-80
2023/05/04 04:07:15;;;;;;;8.05;4.07;;;;;;;-148.88;100.00;77181.03;5019109;28;20053;-79
2023/05/04 04:09:41;;;;;;;7.35;4.10;;;;;;;-148.88;100.00;77187.13;5019515;28;20493;-79
2023/05/04 04:12:06;;;;;;;11.38;7.80;;;;;;;-148.88;100.00;77183.06;5018563;28;20109;-78
2023/05/04 04:14:31;;;;;;;9.10;4.43;;;;;;;-148.88;100.00;77189.16;4999955;28;20033;-78
2023/05/04 04:16:56;;;;;;;8.05;4.50;;;;;;;-148.88;100.00;77185.09;5015068;28;20366;-77
2023/05/04 04:19:22;;;;;;;7.85;3.95;;;;;;;-148.88;100.00;77187.13;5015212;28;20022;-77
2023/05/04 04:21:47;;;;;;;7.88;4.38;;;;;;;-148.88;100.00;77193.22;4997648;28;20049;-77
2023/05/04 04:24:12;;;;;;;9.10;4.28;;;;;;;-148.88;100.00;77199.31;5015065;28;20037;-77
2023/05/04 04:26:38;;;;;;;11.15;4.60;;;;;;;-148.88;100.00;77191.19;5015076;28;20405;-77
2023/05/04 04:29:03;;;;;;;9.98;5.93;;;;;;;-148.88;100.00;77207.47;5014932;28;20112;-77
2023/05/04 04:31:29;;;;;;;7.63;4.22;;;;;;;-148.88;100.00;77197.28;5014996;28;20026;-77
2023/05/04 04:33:55;;;;;;;8.38;4.70;;;;;;;-148.88;100.00;77195.25;5015089;28;20026;-77
2023/05/04 04:36:20;;;;;;;8.85;4.45;;;;;;;-148.88;100.00;77197.28;5014588;28;20022;-77
2023/05/04 04:38:46;;;;;;;13.57;4.15;;;;;;;-148.88;100.00;77199.31;5014534;28;20034;-77
2023/05/04 04:41:11;;;;;;;10.65;4.35;;;;;;;-148.88;100.00;77199.31;5014542;28;20044;-77
2023/05/04 04:43:36;;;;;;;9.75;3.92;;;;;;;-148.88;100.00;77199.31;4997365;28;20408;-76
2023/05/04 04:46:03;;;;;;;8.43;4.22;;;;;;;-148.88;100.00;77195.25;5014602;28;20049;-77
2023/05/04 04:48:28;;;;;;;8.35;4.07;;;;;;;-148.88;100.00;77195.25;4997527;28;20556;-78
2023/05/04 04:50:53;;;;;;;8.98;4.40;;;;;;;-148.88;100.00;77195.25;5014662;28;20057;-78
2023/05/04 04:53:18;;;;;;;8.98;4.05;;;;;;;-148.88;100.00;77187.13;5014190;28;20022;-77
2023/05/04 04:55:44;;;;;;;8.20;4.20;;;;;;;-148.88;100.00;77205.44;4996669;28;20022;-77
2023/05/04 04:58:09;;;;;;;9.57;3.95;;;;;;;-148.88;100.00;77201.34;5014418;28;20030;-78
2023/05/04 05:00:35;;;;;;;10.82;3.75;;;;;;;-148.88;100.00;77195.25;4996447;28;20030;-77
2023/05/04 05:03:02;;;;;;;9.30;4.70;;;;;;;-148.88;100.00;77187.13;5014229;28;20032;-77
2023/05/04 05:05:27;;;;;;;7.28;3.97;;;;;;;-148.88;100.00;77187.13;4996231;28;20022;-77
2023/05/04 05:07:52;;;;;;;8.68;4.10;;;;;;;-148.88;100.00;77181.03;5013842;28;20029;-77
2023/05/04 05:10:19;;;;;;;12.20;4.57;;;;;;;-148.88;100.00;77170.88;5013974;28;20515;-77
2023/05/04 05:12:45;;;;;;;10.55;4.95;;;;;;;-148.88;100.00;77179.00;4996110;28;20050;-77
2023/05/04 05:15:10;;;;;;;9.00;4.88;;;;;;;-148.88;100.00;77164.78;5013763;28;20060;-77
2023/05/04 05:17:36;;;;;;;12.63;4.53;;;;;;;-148.88;100.00;77152.59;5013875;28;20485;-77
2023/05/04 05:20:04;;;;;;;8.88;4.03;;;;;;;-148.88;100.00;77164.78;4996294;28;20033;-77
2023/05/04 05:22:30;;;;;;;8.25;6.68;;;;;;;-148.88;100.00;77148.53;5013719;28;20025;-76
2023/05/04 05:24:55;;;;;;;7.00;4.15;;;;;;;-148.88;100.00;77144.47;5018467;28;20026;-77
2023/05/04 05:27:20;;;;;;;8.68;4.32;;;;;;;-148.88;100.00;77136.34;5014139;28;20028;-77
2023/05/04 05:29:46;;;;;;;9.23;4.75;;;;;;;-148.88;100.00;77146.50;5013816;28;20022;-77
2023/05/04 05:32:11;;;;;;;7.63;4.82;;;;;;;-148.88;100.00;77134.31;5013654;28;20030;-77
2023/05/04 05:34:37;;;;;;;11.80;5.60;;;;;;;-148.88;100.00;77134.31;5013726;28;20033;-77
2023/05/04 05:37:03;;;;;;;11.45;5.22;;;;;;;-148.88;100.00;77124.16;5013734;28;20499;-77
2023/05/04 05:39:28;;;;;;;8.05;4.45;;;;;;;-148.88;100.00;77116.03;5013529;28;20038;-77
2023/05/04 05:41:57;;;;;;;8.90;5.43;;;;;;;-148.88;100.00;77107.91;4995915;28;20030;-77
2023/05/04 05:44:22;;;;;;;9.13;4.65;;;;;;;-148.88;100.00;77093.66;5013348;28;20109;-77
2023/05/04 05:46:47;;;;;;;13.02;7.53;;;;;;;-148.88;100.00;77089.59;5013484;28;20104;-77
2023/05/04 05:49:12;;;;;;;11.40;7.80;;;;;;;-148.88;100.00;77081.47;5013373;28;20065;-77
2023/05/04 05:51:38;;;;;;;13.65;4.70;;;;;;;-148.88;100.00;77081.47;5013391;28;20038;-77
2023/05/04 05:54:03;;;;;;;7.75;4.80;;;;;;;-148.88;100.00;77069.28;5013450;28;20023;-77
2023/05/04 05:56:28;;;;;;;9.85;7.40;;;;;;;-148.88;100.00;77055.06;4995680;28;20022;-77
2023/05/04 05:58:54;;;;;;;8.15;4.90;;;;;;;-148.88;100.00;77053.03;5013268;28;20021;-77
2023/05/04 06:01:19;;;;;;;9.00;4.60;;;;;;;-148.88;100.00;77040.84;5013513;28;20037;-76
2023/05/04 06:03:44;;;;;;;10.57;5.15;;;;;;;-148.88;100.00;77028.66;5012778;28;20448;-77
2023/05/04 06:06:09;;;;;;;11.95;5.20;;;;;;;-148.88;100.00;77026.63;5013891;28;20037;-77
2023/05/04 06:08:35;;;;;;;12.25;5.10;;;;;;;-148.88;100.00;77024.59;4995590;28;20514;-77
2023/05/04 06:11:00;;;;;;;10.45;5.45;;;;;;;-148.88;100.00;77022.56;5013107;28;20468;-77
2023/05/04 06:13:25;;;;;;;10.75;5.10;;;;;;;-148.88;100.00;77020.53;5013385;28;20036;-77
2023/05/04 06:15:54;;;;;;;9.18;5.28;;;;;;;-148.88;100.00;76998.16;5013092;28;20022;-76
2023/05/04 06:18:20;;;;;;;10.02;5.28;;;;;;;-148.88;100.00;76988.00;5013131;28;20025;-77
2023/05/04 06:20:45;;;;;;;9.68;5.35;;;;;;;-148.88;100.00;76975.81;5013342;28;20451;-77
2023/05/04 06:23:13;;;;;;;12.07;4.80;;;;;;;-148.88;100.00;76971.75;5013253;28;20026;-77
2023/05/04 06:25:38;;;;;;;8.45;5.80;;;;;;;-148.88;100.00;76969.72;5012951;28;20037;-77
2023/05/04 06:28:03;;;;;;;11.77;4.63;;;;;;;-148.88;100.00;76953.47;5013109;28;20026;-77
2023/05/04 06:30:29;;;;;;;8.20;4.75;;;;;;;-148.88;100.00;76947.38;5013127;28;20026;-77
2023/05/04 06:32:54;;;;;;;11.85;7.70;;;;;;;-148.88;100.00;76933.16;4995462;28;20026;-77
2023/05/04 06:35:19;;;;;;;12.23;5.28;;;;;;;-148.88;100.00;76918.94;4995283;28;20014;-77
2023/05/04 06:37:45;;;;;;;13.10;8.82;;;;;;;-148.88;100.00;76914.88;4995438;28;20034;-76
2023/05/04 06:40:11;;;;;;;11.07;5.30;;;;;;;-148.88;100.00;76904.72;5013085;28;20017;-77
2023/05/04 06:42:36;;;;;;;12.13;7.80;;;;;;;-148.88;100.00;76896.59;5012774;28;20072;-77
2023/05/04 06:45:01;;;;;;;9.80;5.20;;;;;;;-148.88;100.00;76888.47;5012617;28;20048;-77
2023/05/04 06:47:27;;;;;;;9.15;5.60;;;;;;;-148.88;100.00;76874.22;5012698;28;20108;-77
2023/05/04 06:49:52;;;;;;;8.88;7.53;;;;;;;-148.88;100.00;76870.16;4995192;28;20026;-77
2023/05/04 06:52:17;;;;;;;17.13;8.68;;;;;;;-148.88;100.00;76862.03;5013006;28;20030;-77
2023/05/04 06:54:43;;;;;;;10.63;5.35;;;;;;;-148.88;100.00;76857.97;5012744;28;20022;-77
2023/05/04 06:57:08;;;;;;;10.93;7.50;;;;;;;-148.88;100.00;76855.94;5013056;28;20057;-78
2023/05/04 06:59:33;;;;;;;10.73;4.90;;;;;;;-148.88;100.00;76843.75;5012751;28;20401;-77
2023/05/04 07:02:01;;;;;;;14.82;5.82;;;;;;;-148.88;100.00;76819.38;5012759;28;20129;-77
2023/05/04 07:04:26;;;;;;;9.95;5.00;;;;;;;-148.88;100.00;76805.16;4994971;28;20085;-77
2023/05/04 07:06:52;;;;;;;9.70;7.57;;;;;;;-148.88;100.00;76776.72;5012707;28;20471;-77
2023/05/04 07:09:18;;;;;;;10.75;7.60;;;;;;;-148.88;99.35;76762.50;4995084;28;20025;-77
2023/05/04 07:11:44;;;;;;;9.90;5.00;;;;;;;-148.88;98.46;76748.25;4995034;28;20034;-77
2023/05/04 07:14:10;;;;;;;8.50;4.95;;;;;;;-148.88;96.96;76732.00;5015988;28;20025;-76
2023/05/04 07:16:35;;;;;;;11.38;5.05;;;;;;;-148.88;96.26;76705.59;5025602;28;20030;-77
2023/05/04 07:19:00;;;;;;;12.50;7.45;;;;;;;-148.88;95.47;76683.25;5016305;28;20052;-77
2023/05/04 07:21:27;;;;;;;9.57;6.80;;;;;;;-148.88;94.48;76660.91;5016571;28;20018;-77
2023/05/04 07:23:52;;;;;;;11.45;6.60;;;;;;;-148.88;92.34;76638.56;5016073;28;20028;-77
2023/05/04 07:26:17;;;;;;;10.45;6.65;;;;;;;-148.88;92.26;76608.09;4998434;28;20022;-77
2023/05/04 07:28:42;;;;;;;10.43;6.95;;;;;;;-148.88;89.14;76581.66;4998444;28;20032;-77
2023/05/04 07:31:09;;;;;;;11.48;7.00;;;;;;;-148.88;89.51;76583.69;4998376;28;20101;-77
2023/05/04 07:33:34;;;;;;;12.15;6.60;;;;;;;-148.88;89.90;76571.50;5015931;28;20446;-77
2023/05/04 07:35:59;;;;;;;10.70;6.65;;;;;;;-148.88;90.94;76553.22;5015814;28;20018;-77
2023/05/04 07:38:26;;;;;;;9.02;4.55;;;;;;;-148.88;89.60;76549.16;5015881;28;20045;-77
2023/05/04 07:40:54;;;;;;;8.93;6.80;;;;;;;-148.88;90.53;76541.03;5015994;28;20030;-77
2023/05/04 07:43:20;;;;;;;10.18;4.90;;;;;;;-148.88;90.61;76547.13;5015791;28;20022;-77
2023/05/04 07:45:45;;;;;;;11.30;6.63;;;;;;;-148.88;89.92;76545.09;5015594;28;20022;-77
2023/05/04 07:48:11;;;;;;;13.98;6.70;;;;;;;-148.88;89.26;76549.16;5015782;28;20052;-77
2023/05/04 07:50:36;;;;;;;10.52;6.78;;;;;;;-148.88;88.43;76528.84;4998099;28;20412;-77
2023/05/04 07:53:02;;;;;;;9.50;6.00;;;;;;;-148.88;86.82;76518.69;4998032;28;20051;-77
2023/05/04 07:55:28;;;;;;;7.88;4.38;;;;;;;-148.88;87.87;76512.59;4998081;28;20076;-77
2023/05/04 07:57:53;;;;;;;12.63;6.57;;;;;;;-148.88;86.98;76498.38;5015556;28;20080;-77
2023/05/04 08:00:20;;;;;;;10.45;6.25;;;;;;;-148.88;87.29;76492.28;4998723;28;20026;-77
2023/05/04 08:02:45;;;;;;;11.07;6.30;;;;;;;-148.88;86.66;76484.16;5015823;28;20030;-77
2023/05/04 08:05:10;;;;;;;9.75;6.03;;;;;;;-148.88;84.68;76488.22;5015649;28;20099;-78
2023/05/04 08:07:36;;;;;;;9.35;6.35;;;;;;;-148.88;84.85;76478.06;4998375;28;20034;-78
2023/05/04 08:10:02;;;;;;;11.00;6.40;;;;;;;-148.88;86.84;76451.66;5015549;28;20094;-78
2023/05/04 08:12:27;;;;;;;8.40;5.57;;;;;;;-148.88;83.21;76451.66;5015197;28;20022;-77
2023/05/04 08:14:53;;;;;;;15.95;6.70;;;;;;;-148.88;82.93;76423.19;5015083;28;20013;-77
2023/05/04 08:17:18;;;;;;;12.07;5.40;;;;;;;-148.88;83.50;76392.72;4997797;28;20026;-76
2023/05/04 08:19:43;;;;;;;10.00;5.65;;;;;;;-148.88;81.33;76384.59;5014943;28;20515;-77
2023/05/04 08:22:09;;;;;;;8.88;6.10;;;;;;;-148.88;81.75;76358.19;5015241;28;20049;-76
2023/05/04 08:24:34;;;;;;;11.20;6.18;;;;;;;-148.88;81.14;76335.84;5014699;28;20392;-76
2023/05/04 08:27:01;;;;;;;8.25;5.68;;;;;;;-148.88;82.00;76315.53;4996940;28;20018;-76
2023/05/04 08:29:26;;;;;;;10.07;5.93;;;;;;;-148.88;81.31;76301.31;5015191;28;20030;-77
2023/05/04 08:31:54;;;;;;;8.43;5.72;;;;;;;-148.88;83.56;76264.75;5014738;28;20033;-76
2023/05/04 08:34:20;;;;;;;7.82;5.65;;;;;;;-148.88;78.39;76254.59;5014670;28;20032;-76
2023/05/04 08:36:45;;;;;;;9.82;6.10;;;;;;;-148.88;79.24;76228.19;5014559;28;20113;-76
2023/05/04 08:39:11;;;;;;;10.85;5.85;;;;;;;-148.88;76.87;76220.06;5014636;28;20030;-77
2023/05/04 08:41:40;;;;;;;6.60;5.22;;;;;;;-148.88;77.74;76211.94;5014521;28;20045;-77
2023/05/04 08:44:09;;;;;;;16.15;6.00;;;;;;;-148.88;77.90;76185.53;5014361;28;20485;-75
2023/05/04 08:46:36;;;;;;;11.80;5.65;;;;;;;-148.88;78.58;76159.13;5014706;28;20432;-76
2023/05/04 08:49:01;;;;;;;11.10;5.97;;;;;;;-148.88;76.37;76148.97;5014369;28;20109;-76
2023/05/04 08:51:30;;;;;;;9.80;4.97;;;;;;;-148.88;77.04;76094.09;5014423;28;20481;-76
2023/05/04 08:53:57;;;;;;;9.98;5.45;;;;;;;-148.88;73.59;76124.56;4996797;28;20021;-76
2023/05/04 08:56:23;;;;;;;7.10;5.05;;;;;;;-148.88;73.69;76112.41;5014164;28;20045;-76
2023/05/04 08:58:50;;;;;;;9.95;5.50;;;;;;;-148.88;73.52;76102.22;5014221;28;20026;-76
2023/05/04 09:01:17;;;;;;;8.32;5.60;;;;;;;-148.88;73.54;76090.03;4996832;28;20427;-76
2023/05/04 09:03:44;;;;;;;9.32;5.28;;;;;;;-148.88;73.46;76069.72;5014198;28;20030;-76
2023/05/04 09:06:10;;;;;;;9.50;5.38;;;;;;;-148.88;72.53;76053.47;5014142;28;20030;-76
2023/05/04 09:08:35;;;;;;;7.57;5.20;;;;;;;-148.88;74.78;76031.13;5014035;28;20017;-76
2023/05/04 09:11:02;;;;;;;8.20;5.40;;;;;;;-148.88;72.87;76008.78;5014079;28;20437;-76
2023/05/04 09:13:27;;;;;;;7.53;4.95;;;;;;;-148.88;74.21;75980.34;5013889;28;20446;-76
2023/05/04 09:15:56;;;;;;;8.23;5.10;;;;;;;-148.88;69.43;75988.47;5013792;28;20068;-76
2023/05/04 09:18:24;;;;;;;8.43;4.78;;;;;;;-148.88;70.93;75962.06;5013904;28;20054;-76
2023/05/04 09:20:50;;;;;;;8.38;5.10;;;;;;;-148.88;72.31;75951.91;5013849;28;20037;-76
2023/05/04 09:23:16;;;;;;;11.00;4.95;;;;;;;-148.88;71.12;75929.56;5013966;28;20018;-76
2023/05/04 09:25:50;;;;;;;11.02;4.90;;;;;;;-148.88;70.11;75923.47;5013595;28;20443;-76
2023/05/04 09:28:17;;;;;;;10.30;5.07;;;;;;;-148.88;69.85;75917.38;5013773;28;20075;-76
2023/05/04 09:30:42;;;;;;;10.43;5.40;;;;;;;-148.88;67.46;75921.44;5013704;28;20056;-76
2023/05/04 09:33:08;;;;;;;8.63;4.43;;;;;;;-148.88;67.19;75890.97;5013664;28;20500;-76
2023/05/04 09:35:33;;;;;;;9.30;4.50;;;;;;;-148.88;65.93;75890.97;5013523;28;20392;-76
2023/05/04 09:37:58;;;;;;;9.25;4.35;;;;;;;-148.88;63.96;75886.91;5013302;28;20026;-76
2023/05/04 09:40:39;;;;;;;10.07;4.72;;;;;;;-148.88;61.53;75874.72;5013598;28;20026;-76
2023/05/04 09:43:05;;;;;;;8.35;4.28;;;;;;;-148.88;61.28;75844.25;5014045;28;20030;-76
2023/05/04 09:45:41;;;;;;;6.97;4.63;;;;;;;-148.88;61.08;75858.47;4995670;28;20401;-76
2023/05/04 09:48:19;;;;;;;6.25;4.00;;;;;;;-148.88;62.01;75813.78;5013302;28;20034;-76
2023/05/04 09:50:59;;;;;;;7.38;4.43;;;;;;;-148.88;59.93;75793.47;5013352;28;20021;-76
2023/05/04 09:53:29;;;;;;;7.85;3.92;;;;;;;-148.88;59.76;75777.22;5013343;28;20076;-76
2023/05/04 09:56:10;;;;;;;8.93;4.50;;;;;;;-148.88;60.69;75797.53;5013199;28;20014;-76
2023/05/04 09:58:36;;;;;;;7.28;4.15;;;;;;;-148.88;60.90;75748.78;4995651;28;20416;-76
2023/05/04 10:01:02;;;;;;;6.40;4.40;;;;;;;-148.88;58.57;75738.63;5013235;28;20018;-76
2023/05/04 10:03:28;;;;;;;9.43;4.32;;;;;;;-148.88;59.13;75718.31;5013128;28;20049;-76
2023/05/04 10:05:53;;;;;;;9.63;4.85;;;;;;;-148.88;57.25;75706.13;5013006;28;20088;-76
2023/05/04 10:08:19;;;;;;;9.27;4.30;;;;;;;-148.88;57.21;75671.59;5013119;28;20017;-76
2023/05/04 10:10:45;;;;;;;7.10;4.07;;;;;;;-148.88;57.36;75647.22;5013103;28;20025;-76
2023/05/04 10:13:11;;;;;;;8.75;5.07;;;;;;;-148.88;57.41;75641.13;5013161;28;20029;-76
2023/05/04 10:15:43;;;;;;;5.47;4.30;;;;;;;-148.88;53.71;75630.97;5013036;28;20448;-76
2023/05/04 10:18:45;;;;;;;8.25;4.68;;;;;;;-148.88;55.97;75590.34;5013340;28;20097;-76
2023/05/04 10:21:31;;;;;;;8.57;4.65;;;;;;;-148.88;56.85;75582.22;5002600;28;20489;-76
2023/05/04 10:24:33;;;;;;;9.65;4.93;;;;;;;-148.88;57.13;75541.63;5013090;28;20110;-76
2023/05/04 10:27:07;;;;;;;9.63;4.60;;;;;;;-148.88;57.22;75578.19;5013346;28;20030;-76
2023/05/04 10:29:33;;;;;;;9.68;4.53;;;;;;;-148.88;55.54;75549.75;5013267;28;20469;-76
2023/05/04 10:31:59;;;;;;;7.97;4.25;;;;;;;-148.88;56.25;75527.41;4995333;28;20084;-76
2023/05/04 10:34:32;;;;;;;8.25;4.40;;;;;;;-148.88;53.48;75517.25;5012882;28;20026;-76
2023/05/04 10:36:58;;;;;;;7.50;4.78;;;;;;;-148.88;54.91;75503.03;4995352;28;20030;-76
2023/05/04 10:39:34;;;;;;;6.25;4.50;;;;;;;-148.88;55.65;75458.34;5012915;28;20497;-77
2023/05/04 10:42:04;;;;;;;8.95;4.35;;;;;;;-148.88;50.93;75462.41;5012944;28;20028;-76
2023/05/04 10:44:48;;;;;;;6.07;4.22;;;;;;;-148.88;51.15;75440.06;5012784;28;20032;-76
2023/05/04 10:47:13;;;;;;;6.38;4.32;;;;;;;-148.88;51.50;75411.63;5012769;28;20041;-76
2023/05/04 10:49:38;;;;;;;9.00;4.32;;;;;;;-148.88;54.66;75389.28;4995700;28;20022;-76
2023/05/04 10:52:07;;;;;;;8.15;4.32;;;;;;;-148.88;53.68;75371.00;5016682;28;20029;-76
2023/05/04 10:54:35;;;;;;;7.13;4.30;;;;;;;-148.88;51.70;75371.00;5016691;28;20057;-77
2023/05/04 10:57:05;;;;;;;9.18;4.60;;;;;;;-148.88;49.93;75371.00;4999073;28;20498;-76
2023/05/04 10:59:32;;;;;;;9.55;4.45;;;;;;;-148.88;50.07;75379.13;5016597;28;20049;-76
2023/05/04 11:01:58;;;;;;;6.63;4.47;;;;;;;-148.88;49.73;75364.91;5016506;28;20026;-76
2023/05/04 11:04:23;;;;;;;7.38;4.88;;;;;;;-148.88;50.65;75362.88;5016256;28;20026;-76
2023/05/04 11:06:59;;;;;;;8.13;4.65;;;;;;;-148.88;51.23;75344.59;5016323;28;20025;-76
2023/05/04 11:09:27;;;;;;;9.18;4.60;;;;;;;-148.88;50.17;75312.09;5016260;28;20083;-76